createdAt,value
2017-05-13T00:01:37.337Z,1.32
2017-05-13T00:04:03.238Z,1.54
2017-05-13T00:06:29.137Z,1.58
2017-05-13T00:08:55.010Z,1.12
2017-05-13T00:11:20.855Z,1.28
2017-05-13T00:13:46.715Z,1.20
2017-05-13T00:18:45.369Z,1.30
2017-05-13T00:21:11.229Z,1.28
2017-05-13T00:23:37.136Z,1.20
2017-05-13T00:26:03.018Z,1.22
2017-05-13T00:28:28.854Z,1.50
2017-05-13T00:30:54.704Z,1.20
2017-05-13T00:33:20.718Z,1.20
2017-05-13T00:35:46.552Z,1.10
2017-05-13T00:38:12.391Z,1.30
2017-05-13T00:40:38.246Z,1.20
2017-05-13T00:43:04.125Z,1.36
2017-05-13T00:45:30.001Z,1.40
2017-05-13T00:47:55.856Z,1.44
2017-05-13T00:50:21.729Z,1.30
2017-05-13T00:52:47.567Z,1.50
2017-05-13T00:55:13.415Z,1.20
2017-05-13T00:57:39.282Z,1.30
2017-05-13T01:00:05.161Z,1.36
2017-05-13T01:02:31.054Z,1.38
2017-05-13T01:04:56.896Z,1.38
2017-05-13T01:07:22.770Z,1.14
2017-05-13T01:09:48.630Z,1.10
2017-05-13T01:12:14.486Z,1.48
2017-05-13T01:14:41.113Z,1.10
2017-05-13T01:17:07.713Z,1.28
2017-05-13T01:19:33.570Z,1.28
2017-05-13T01:21:59.517Z,1.40
2017-05-13T01:24:25.352Z,1.20
2017-05-13T01:26:51.243Z,1.24
2017-05-13T01:29:17.178Z,1.22
2017-05-13T01:31:43.018Z,1.16
2017-05-13T01:34:08.866Z,1.10
2017-05-13T01:36:34.788Z,1.32
2017-05-13T01:39:00.631Z,1.40
2017-05-13T01:41:26.474Z,1.08
2017-05-13T01:43:52.441Z,1.08
2017-05-13T01:46:18.287Z,1.38
2017-05-13T01:48:44.168Z,1.12
2017-05-13T01:51:10.186Z,1.20
2017-05-13T01:53:36.003Z,1.10
2017-05-13T01:56:01.867Z,1.30
2017-05-13T01:58:27.931Z,1.10
2017-05-13T02:00:53.794Z,1.36
2017-05-13T02:03:19.706Z,1.14
2017-05-13T02:05:45.654Z,1.00
2017-05-13T02:08:11.653Z,1.16
2017-05-13T02:10:37.497Z,1.20
2017-05-13T02:13:03.394Z,1.10
2017-05-13T02:15:29.294Z,1.02
2017-05-13T02:17:55.323Z,1.20
2017-05-13T02:20:21.194Z,1.30
2017-05-13T02:22:47.048Z,1.30
2017-05-13T02:25:13.622Z,1.52
2017-05-13T02:27:39.471Z,1.30
2017-05-13T02:30:05.358Z,1.00
2017-05-13T02:32:31.261Z,1.10
2017-05-13T02:34:57.251Z,1.30
2017-05-13T02:37:23.095Z,1.14
2017-05-13T02:39:48.967Z,1.34
2017-05-13T02:42:14.836Z,1.22
2017-05-13T02:44:40.686Z,1.00
2017-05-13T02:47:06.607Z,1.24
2017-05-13T02:49:32.462Z,1.20
2017-05-13T02:51:58.351Z,1.10
2017-05-13T02:54:24.193Z,1.36
2017-05-13T02:56:50.059Z,0.96
2017-05-13T02:59:16.010Z,1.10
2017-05-13T03:01:41.853Z,1.22
2017-05-13T03:04:07.789Z,1.26
2017-05-13T03:06:33.645Z,1.20
2017-05-13T03:08:59.494Z,1.00
2017-05-13T03:11:25.360Z,1.00
2017-05-13T03:13:51.202Z,1.04
2017-05-13T03:16:17.237Z,1.04
2017-05-13T03:18:43.096Z,1.30
2017-05-13T03:21:08.965Z,1.08
2017-05-13T03:23:34.807Z,1.06
2017-05-13T03:26:00.646Z,1.26
2017-05-13T03:28:26.587Z,1.20
2017-05-13T03:30:52.495Z,1.24
2017-05-13T03:33:18.385Z,1.00
2017-05-13T03:35:44.224Z,1.20
2017-05-13T03:38:10.081Z,1.08
2017-05-13T03:40:36.092Z,1.14
2017-05-13T03:43:01.925Z,1.38
2017-05-13T03:45:27.802Z,1.28
2017-05-13T03:47:53.658Z,1.10
2017-05-13T03:50:19.539Z,1.00
2017-05-13T03:52:45.474Z,0.90
2017-05-13T03:55:11.328Z,1.08
2017-05-13T03:57:37.269Z,1.24
2017-05-13T04:00:03.126Z,1.00
2017-05-13T04:02:29.049Z,1.04
2017-05-13T04:04:54.932Z,1.00
2017-05-13T04:07:20.770Z,1.20
2017-05-13T04:09:46.707Z,1.12
2017-05-13T04:12:12.595Z,1.10
2017-05-13T04:14:38.474Z,0.90
2017-05-13T04:17:04.332Z,1.24
2017-05-13T04:19:30.169Z,1.28
2017-05-13T04:21:56.146Z,1.10
2017-05-13T04:24:21.999Z,1.24
2017-05-13T04:26:47.925Z,0.98
2017-05-13T04:29:13.739Z,1.06
2017-05-13T04:31:39.607Z,1.00
2017-05-13T04:34:05.492Z,1.02
2017-05-13T04:36:32.108Z,1.00
2017-05-13T04:38:58.003Z,0.90
2017-05-13T04:41:23.838Z,0.90
2017-05-13T04:43:49.695Z,1.02
2017-05-13T04:46:15.578Z,0.96
2017-05-13T04:48:41.489Z,1.00
2017-05-13T04:51:07.433Z,1.00
2017-05-13T04:53:33.298Z,1.10
2017-05-13T04:55:59.151Z,0.94
2017-05-13T04:58:25.061Z,1.10
2017-05-13T05:00:50.910Z,1.20
2017-05-13T05:03:16.857Z,1.10
2017-05-13T05:05:43.434Z,0.96
2017-05-13T05:08:09.311Z,0.90
2017-05-13T05:10:35.174Z,1.10
2017-05-13T05:13:01.078Z,1.10
2017-05-13T05:15:26.930Z,0.80
2017-05-13T05:17:52.970Z,0.90
2017-05-13T05:20:18.886Z,1.00
2017-05-13T05:22:44.749Z,0.86
2017-05-13T05:25:11.338Z,1.10
2017-05-13T05:27:37.267Z,1.00
2017-05-13T05:30:03.211Z,1.00
2017-05-13T05:35:00.281Z,1.00
2017-05-13T05:37:26.130Z,1.18
2017-05-13T05:39:51.981Z,1.02
2017-05-13T05:42:17.823Z,0.98
2017-05-13T05:44:43.706Z,1.04
2017-05-13T05:47:09.553Z,1.08
2017-05-13T05:49:35.433Z,0.96
2017-05-13T05:52:01.313Z,1.00
2017-05-13T05:54:27.142Z,1.10
2017-05-13T05:56:53.771Z,1.12
2017-05-13T05:59:20.366Z,1.08
2017-05-13T06:01:46.305Z,0.90
2017-05-13T06:04:12.489Z,0.90
2017-05-13T06:06:38.358Z,0.90
2017-05-13T06:09:04.225Z,1.00
2017-05-13T06:11:30.102Z,0.86
2017-05-13T06:13:56.336Z,0.90
2017-05-13T06:16:22.213Z,1.54
2017-05-13T06:18:48.062Z,1.00
2017-05-13T06:21:13.977Z,1.00
2017-05-13T06:23:39.858Z,1.06
2017-05-13T06:26:05.744Z,2.36
2017-05-13T06:28:31.598Z,1.94
2017-05-13T06:30:57.537Z,2.94
2017-05-13T06:33:23.414Z,2.32
2017-05-13T06:35:49.261Z,2.28
2017-05-13T06:38:15.106Z,2.18
2017-05-13T06:40:40.958Z,2.00
2017-05-13T06:43:06.930Z,2.24
2017-05-13T06:45:32.828Z,2.10
2017-05-13T06:47:58.674Z,2.08
2017-05-13T06:50:24.534Z,2.06
2017-05-13T06:52:50.390Z,2.08
2017-05-13T06:55:16.307Z,2.40
2017-05-13T06:57:42.149Z,2.08
2017-05-13T07:00:08.008Z,2.66
2017-05-13T07:02:33.906Z,2.98
2017-05-13T07:04:59.872Z,3.36
2017-05-13T07:07:25.748Z,3.52
2017-05-13T07:09:51.590Z,3.36
2017-05-13T07:12:17.570Z,3.62
2017-05-13T07:14:43.463Z,3.34
2017-05-13T07:17:09.268Z,12.10
2017-05-13T07:19:35.130Z,17.16
2017-05-13T07:22:01.018Z,17.08
2017-05-13T07:24:26.963Z,16.50
2017-05-13T07:26:52.826Z,16.96
2017-05-13T07:29:18.657Z,19.40
2017-05-13T07:31:44.539Z,18.40
2017-05-13T07:34:10.491Z,19.78
2017-05-13T07:36:36.501Z,19.00
2017-05-13T07:39:02.360Z,20.16
2017-05-13T07:41:28.246Z,21.62
2017-05-13T07:46:25.965Z,23.90
2017-05-13T07:48:51.829Z,24.54
2017-05-13T07:51:17.821Z,24.86
2017-05-13T07:53:43.774Z,22.86
2017-05-13T07:56:09.647Z,22.38
2017-05-13T07:58:35.750Z,23.14
2017-05-13T08:01:01.698Z,26.62
2017-05-13T08:03:27.519Z,24.32
2017-05-13T08:05:53.730Z,25.32
2017-05-13T08:08:20.066Z,23.34
2017-05-13T08:10:47.053Z,25.20
2017-05-13T08:13:13.671Z,22.32
2017-05-13T08:15:39.543Z,24.50
2017-05-13T08:18:05.414Z,22.54
2017-05-13T08:20:31.397Z,21.20
2017-05-13T08:22:57.331Z,20.44
2017-05-13T08:25:23.274Z,19.92
2017-05-13T08:27:49.195Z,20.12
2017-05-13T08:32:47.011Z,18.40
2017-05-13T08:35:13.679Z,16.46
2017-05-13T08:37:39.550Z,15.30
2017-05-13T08:40:05.401Z,16.24
2017-05-13T08:42:32.026Z,16.16
2017-05-13T08:44:57.879Z,15.34
2017-05-13T08:47:23.727Z,14.52
2017-05-13T08:49:49.567Z,13.72
2017-05-13T08:52:15.422Z,13.94
2017-05-13T08:54:41.274Z,14.12
2017-05-13T08:57:07.160Z,13.06
2017-05-13T08:59:33.011Z,12.58
2017-05-13T09:01:58.881Z,13.20
2017-05-13T09:04:25.550Z,11.68
2017-05-13T09:06:51.564Z,12.00
2017-05-13T09:09:17.397Z,11.70
2017-05-13T09:11:43.301Z,11.32
2017-05-13T09:14:09.190Z,11.44
2017-05-13T09:16:35.167Z,10.94
2017-05-13T09:19:01.013Z,10.50
2017-05-13T09:21:26.877Z,10.70
2017-05-13T09:23:52.714Z,10.50
2017-05-13T09:26:18.583Z,10.10
2017-05-13T09:28:44.435Z,10.28
2017-05-13T09:31:10.287Z,10.62
2017-05-13T09:33:36.306Z,10.76
2017-05-13T09:36:02.219Z,9.82
2017-05-13T09:38:28.090Z,15.00
2017-05-13T09:40:54.069Z,14.66
2017-05-13T09:43:19.924Z,14.56
2017-05-13T09:45:45.878Z,14.20
2017-05-13T09:48:11.798Z,12.72
2017-05-13T09:50:37.587Z,14.66
2017-05-13T09:53:03.430Z,12.72
2017-05-13T09:55:29.310Z,14.18
2017-05-13T09:57:55.257Z,14.84
2017-05-13T10:00:21.111Z,13.42
2017-05-13T10:02:46.992Z,13.60
2017-05-13T10:05:12.887Z,13.46
2017-05-13T10:07:38.755Z,12.92
2017-05-13T10:10:04.610Z,12.42
2017-05-13T10:12:30.472Z,12.30
2017-05-13T10:14:56.431Z,11.70
2017-05-13T10:17:22.330Z,12.50
2017-05-13T10:19:48.224Z,12.34
2017-05-13T10:22:14.078Z,11.84
2017-05-13T10:24:39.963Z,11.92
2017-05-13T10:27:06.370Z,11.86
2017-05-13T10:29:32.065Z,11.28
2017-05-13T10:31:57.972Z,11.12
2017-05-13T10:34:23.829Z,11.22
2017-05-13T10:36:49.676Z,11.66
2017-05-13T10:39:15.528Z,12.72
2017-05-13T10:41:42.322Z,11.22
2017-05-13T10:44:08.170Z,10.84
2017-05-13T10:46:34.066Z,12.22
2017-05-13T10:48:59.934Z,10.16
2017-05-13T10:51:25.823Z,10.38
2017-05-13T10:53:51.694Z,9.28
2017-05-13T10:56:17.706Z,10.32
2017-05-13T10:58:43.591Z,9.32
2017-05-13T11:01:09.463Z,9.52
2017-05-13T11:03:35.363Z,10.44
2017-05-13T11:06:01.231Z,8.46
2017-05-13T11:08:27.171Z,8.68
2017-05-13T11:10:53.098Z,7.94
2017-05-13T11:13:18.966Z,8.68
2017-05-13T11:15:44.802Z,7.72
2017-05-13T11:18:10.667Z,7.50
2017-05-13T11:20:36.558Z,8.52
2017-05-13T11:23:02.457Z,7.74
2017-05-13T11:25:29.044Z,7.82
2017-05-13T11:27:54.919Z,8.46
2017-05-13T11:30:21.546Z,8.06
2017-05-13T11:32:47.431Z,8.22
2017-05-13T11:35:13.327Z,7.80
2017-05-13T11:37:39.482Z,7.48
2017-05-13T11:40:05.405Z,8.20
2017-05-13T11:42:31.388Z,7.04
2017-05-13T11:44:57.245Z,7.52
2017-05-13T11:47:23.137Z,6.68
2017-05-13T11:49:49.107Z,7.32
2017-05-13T11:52:15.046Z,6.82
2017-05-13T11:54:40.853Z,7.30
2017-05-13T11:57:06.708Z,7.24
2017-05-13T11:59:32.595Z,6.66
2017-05-13T12:01:58.495Z,7.24
2017-05-13T12:04:24.511Z,6.66
2017-05-13T12:06:50.534Z,6.44
2017-05-13T12:09:16.389Z,5.92
2017-05-13T12:11:42.246Z,6.48
2017-05-13T12:14:08.099Z,5.80
2017-05-13T12:16:34.732Z,6.18
2017-05-13T12:19:00.711Z,4.60
2017-05-13T12:21:26.618Z,4.16
2017-05-13T12:23:52.514Z,4.04
2017-05-13T12:26:18.345Z,3.46
2017-05-13T12:28:44.202Z,4.02
2017-05-13T12:31:10.178Z,3.80
2017-05-13T12:33:36.003Z,3.14
2017-05-13T12:36:01.841Z,3.42
2017-05-13T12:38:27.697Z,3.84
2017-05-13T12:40:53.592Z,3.26
2017-05-13T12:43:20.202Z,3.30
2017-05-13T12:45:46.039Z,3.14
2017-05-13T12:48:11.963Z,3.46
2017-05-13T12:50:37.811Z,3.28
2017-05-13T12:53:03.687Z,3.18
2017-05-13T12:55:29.593Z,3.98
2017-05-13T12:57:55.428Z,3.20
2017-05-13T13:00:21.367Z,3.20
2017-05-13T13:02:47.229Z,3.98
2017-05-13T13:05:13.093Z,3.28
2017-05-13T13:07:38.962Z,3.66
2017-05-13T13:10:04.806Z,3.58
2017-05-13T13:12:30.793Z,4.04
2017-05-13T13:14:56.683Z,4.84
2017-05-13T13:17:22.522Z,4.58
2017-05-13T13:19:48.365Z,4.14
2017-05-13T13:22:14.228Z,3.92
2017-05-13T13:24:40.070Z,3.80
2017-05-13T13:27:05.927Z,3.96
2017-05-13T13:29:31.871Z,3.72
2017-05-13T13:31:57.759Z,3.90
2017-05-13T13:34:23.657Z,4.20
2017-05-13T13:36:50.262Z,3.60
2017-05-13T13:39:16.142Z,4.72
2017-05-13T13:41:42.063Z,3.68
2017-05-13T13:44:07.989Z,5.00
2017-05-13T13:46:33.839Z,4.84
2017-05-13T13:48:59.738Z,5.54
2017-05-13T13:51:25.597Z,6.94
2017-05-13T13:53:51.525Z,6.32
2017-05-13T13:56:17.396Z,7.14
2017-05-13T13:58:43.233Z,5.22
2017-05-13T14:01:09.086Z,4.74
2017-05-13T14:03:34.960Z,5.10
2017-05-13T14:06:00.855Z,4.48
2017-05-13T14:08:26.711Z,5.12
2017-05-13T14:10:52.638Z,3.88
2017-05-13T14:13:18.488Z,7.84
2017-05-13T14:15:44.344Z,5.50
2017-05-13T14:18:10.226Z,9.02
2017-05-13T14:20:36.086Z,8.00
2017-05-13T14:23:02.023Z,8.94
2017-05-13T14:25:27.915Z,9.04
2017-05-13T14:27:53.865Z,11.62
2017-05-13T14:30:19.783Z,10.64
2017-05-13T14:32:45.634Z,10.38
2017-05-13T14:35:11.596Z,9.96
2017-05-13T14:37:37.476Z,10.14
2017-05-13T14:40:03.321Z,9.44
2017-05-13T14:42:29.236Z,8.98
2017-05-13T14:44:55.195Z,7.76
2017-05-13T14:47:21.043Z,7.96
2017-05-13T14:49:46.919Z,7.74
2017-05-13T14:52:13.023Z,7.04
2017-05-13T14:54:38.955Z,6.76
2017-05-13T14:57:04.802Z,7.84
2017-05-13T14:59:31.323Z,6.92
2017-05-13T15:01:57.185Z,7.76
2017-05-13T15:04:23.244Z,8.96
2017-05-13T15:06:49.097Z,9.48
2017-05-13T15:09:14.962Z,9.54
2017-05-13T15:11:40.826Z,9.18
2017-05-13T15:14:06.677Z,9.72
2017-05-13T15:16:32.531Z,10.30
2017-05-13T15:18:58.412Z,9.64
2017-05-13T15:21:24.254Z,11.20
2017-05-13T15:23:50.110Z,8.68
2017-05-13T15:26:15.969Z,8.22
2017-05-13T15:28:41.834Z,7.34
2017-05-13T15:31:07.710Z,5.78
2017-05-13T15:33:33.691Z,5.92
2017-05-13T15:35:59.539Z,5.70
2017-05-13T15:38:25.430Z,6.28
2017-05-13T15:40:51.319Z,6.82
2017-05-13T15:43:17.169Z,5.92
2017-05-13T15:45:43.157Z,5.32
2017-05-13T15:48:08.992Z,5.42
2017-05-13T15:50:34.859Z,6.80
2017-05-13T15:53:01.535Z,6.04
2017-05-13T15:55:27.387Z,7.36
2017-05-13T15:57:53.242Z,8.18
2017-05-13T16:00:19.098Z,7.36
2017-05-13T16:02:44.969Z,7.66
2017-05-13T16:05:10.827Z,8.08
2017-05-13T16:07:36.710Z,7.56
2017-05-13T16:10:02.575Z,6.46
2017-05-13T16:12:28.455Z,5.96
2017-05-13T16:14:54.366Z,8.38
2017-05-13T16:17:20.222Z,9.34
2017-05-13T16:19:46.075Z,10.00
2017-05-13T16:22:11.937Z,9.72
2017-05-13T16:24:37.806Z,9.48
2017-05-13T16:27:03.758Z,9.60
2017-05-13T16:29:29.602Z,9.62
2017-05-13T16:31:56.214Z,8.22
2017-05-13T16:34:22.103Z,6.90
2017-05-13T16:36:47.952Z,6.90
2017-05-13T16:39:13.846Z,6.08
2017-05-13T16:41:39.699Z,5.80
2017-05-13T16:44:05.619Z,5.76
2017-05-13T16:46:31.465Z,5.58
2017-05-13T16:48:58.105Z,6.42
2017-05-13T16:51:23.946Z,5.32
2017-05-13T16:53:49.812Z,4.76
2017-05-13T16:56:15.902Z,5.24
2017-05-13T16:58:41.786Z,5.60
2017-05-13T17:01:07.644Z,5.40
2017-05-13T17:03:33.496Z,5.70
2017-05-13T17:05:59.346Z,5.92
2017-05-13T17:08:25.190Z,6.08
2017-05-13T17:10:51.041Z,5.82
2017-05-13T17:13:16.901Z,5.56
2017-05-13T17:15:42.767Z,4.92
2017-05-13T17:18:08.609Z,5.30
2017-05-13T17:20:34.556Z,5.60
2017-05-13T17:23:00.396Z,8.08
2017-05-13T17:25:26.375Z,7.00
2017-05-13T17:27:52.261Z,7.34
2017-05-13T17:30:18.097Z,7.28
2017-05-13T17:32:43.951Z,7.18
2017-05-13T17:35:09.875Z,7.10
2017-05-13T17:37:35.863Z,7.22
2017-05-13T17:40:01.726Z,7.20
2017-05-13T17:42:27.580Z,6.34
2017-05-13T17:44:54.349Z,6.68
2017-05-13T17:47:20.205Z,7.84
2017-05-13T17:49:46.070Z,7.04
2017-05-13T17:52:11.943Z,7.10
2017-05-13T17:54:37.891Z,6.80
2017-05-13T17:57:03.735Z,8.76
2017-05-13T17:59:29.611Z,10.06
2017-05-13T18:01:55.471Z,9.92
2017-05-13T18:04:21.379Z,10.34
2017-05-13T18:06:47.347Z,10.38
2017-05-13T18:09:13.196Z,8.96
2017-05-13T18:11:39.056Z,8.70
2017-05-13T18:14:04.963Z,8.82
2017-05-13T18:16:30.787Z,8.38
2017-05-13T18:18:57.814Z,7.32
2017-05-13T18:21:23.665Z,7.48
2017-05-13T18:23:49.515Z,8.24
2017-05-13T18:26:15.363Z,8.12
2017-05-13T18:28:41.229Z,7.36
2017-05-13T18:31:07.095Z,7.84
2017-05-13T18:33:32.950Z,8.00
2017-05-13T18:35:59.640Z,8.30
2017-05-13T18:38:25.538Z,8.26
2017-05-13T18:40:51.418Z,8.64
2017-05-13T18:43:17.278Z,9.42
2017-05-13T18:45:43.121Z,8.90
2017-05-13T18:48:09.084Z,7.84
2017-05-13T18:50:34.932Z,8.74
2017-05-13T18:53:00.805Z,9.36
2017-05-13T18:55:26.664Z,8.40
2017-05-13T18:57:52.557Z,8.16
2017-05-13T19:00:18.425Z,9.54
2017-05-13T19:02:44.273Z,8.82
2017-05-13T19:05:10.182Z,9.90
2017-05-13T19:07:36.164Z,9.38
2017-05-13T19:13:04.359Z,9.52
2017-05-13T19:15:30.207Z,9.20
2017-05-13T19:17:56.222Z,9.82
2017-05-13T19:20:22.126Z,10.20
2017-05-13T19:22:48.002Z,9.10
2017-05-13T19:34:31.233Z,8.74
2017-05-13T19:36:57.096Z,7.64
2017-05-13T19:54:05.703Z,8.10
2017-05-13T19:56:31.587Z,8.50
2017-05-13T19:58:57.543Z,7.88
2017-05-13T20:01:23.403Z,8.64
2017-05-13T20:03:49.262Z,8.22
2017-05-13T20:06:15.110Z,8.34
2017-05-13T20:14:33.953Z,7.74
2017-05-13T20:17:00.027Z,7.52
2017-05-13T20:21:57.259Z,8.02
2017-05-13T20:31:57.403Z,8.07
2017-05-13T20:34:23.937Z,7.80
2017-05-13T20:36:50.261Z,10.22
2017-05-13T20:39:16.907Z,9.64
2017-05-13T20:41:43.089Z,9.84
2017-05-13T20:44:09.359Z,9.06
2017-05-13T20:46:35.449Z,9.16
2017-05-13T20:49:01.591Z,8.36
2017-05-13T20:51:27.866Z,6.68
2017-05-13T20:53:53.960Z,7.72
2017-05-13T20:56:20.311Z,7.50
2017-05-13T20:58:46.630Z,6.80
2017-05-13T21:01:13.005Z,7.96
2017-05-13T21:03:39.536Z,7.56
2017-05-13T21:06:05.839Z,6.84
2017-05-13T21:08:31.942Z,6.64
2017-05-13T21:10:58.333Z,6.50
2017-05-13T21:13:24.641Z,6.74
2017-05-13T21:15:51.069Z,7.38
2017-05-13T21:18:17.287Z,6.66
2017-05-13T21:20:44.425Z,5.88
2017-05-13T21:23:10.794Z,6.58
2017-05-13T21:25:37.033Z,6.74
2017-05-13T21:28:03.218Z,6.58
2017-05-13T21:30:29.566Z,6.46
2017-05-13T21:32:56.092Z,6.86
2017-05-13T21:35:22.467Z,5.78
2017-05-13T21:40:21.625Z,5.72
2017-05-13T21:42:47.841Z,6.24
2017-05-13T21:45:14.305Z,6.50
2017-05-13T21:47:40.786Z,6.18
2017-05-13T21:50:06.998Z,5.74
2017-05-13T21:52:33.331Z,6.00
2017-05-13T21:54:59.627Z,5.94
2017-05-13T21:57:25.966Z,6.10
2017-05-13T21:59:52.141Z,6.52
2017-05-13T22:02:18.523Z,6.70
2017-05-13T22:04:45.595Z,6.88
2017-05-13T22:07:11.907Z,6.22
2017-05-13T22:09:38.175Z,6.68
2017-05-13T22:12:04.390Z,5.82
2017-05-13T22:14:30.834Z,5.70
2017-05-13T22:16:57.139Z,5.80
2017-05-13T22:19:22.982Z,5.44
2017-05-13T22:21:48.830Z,5.76
2017-05-13T22:24:14.746Z,6.02
2017-05-13T22:26:40.812Z,5.60
2017-05-13T22:29:06.613Z,6.16
2017-05-13T22:31:33.254Z,5.78
2017-05-13T22:33:59.126Z,5.74
2017-05-13T22:36:25.022Z,5.56
2017-05-13T22:38:50.859Z,5.92
2017-05-13T22:41:16.795Z,6.22
2017-05-13T22:43:42.734Z,5.26
2017-05-13T22:46:08.589Z,5.80
2017-05-13T22:48:34.499Z,5.38
2017-05-13T22:51:00.350Z,4.90
2017-05-13T22:53:26.460Z,5.62
2017-05-13T22:55:52.437Z,5.30
2017-05-13T22:58:18.291Z,5.38
2017-05-13T23:00:44.174Z,5.70
2017-05-13T23:03:10.067Z,5.46
2017-05-13T23:05:35.910Z,4.94
2017-05-13T23:08:02.688Z,5.68
2017-05-13T23:10:28.510Z,5.12
2017-05-13T23:12:54.381Z,5.88
2017-05-13T23:15:20.977Z,4.86
2017-05-13T23:17:46.822Z,5.46
2017-05-13T23:20:12.672Z,5.78
2017-05-13T23:22:38.533Z,4.92
2017-05-13T23:25:04.483Z,5.22
2017-05-13T23:27:30.325Z,5.70
2017-05-13T23:29:56.222Z,5.20
2017-05-13T23:32:22.112Z,5.38
2017-05-13T23:34:47.958Z,5.66
2017-05-13T23:37:13.895Z,4.94
2017-05-13T23:39:39.822Z,5.26
2017-05-13T23:42:06.411Z,5.00
2017-05-13T23:44:32.326Z,5.30
2017-05-13T23:46:58.259Z,5.56
2017-05-13T23:49:24.142Z,5.04
2017-05-13T23:51:49.987Z,5.50
2017-05-13T23:54:15.914Z,4.58
2017-05-13T23:56:41.766Z,5.40
2017-05-13T23:59:07.619Z,5.40
